sensor_id;sensor_type;location;lat;lon;timestamp;P1;durP1;ratioP1;P2;durP2;ratioP2
286;SDS011;127;48.770;9.212;2024-03-29T00:02:19;3.07;;;2.10;;
286;SDS011;127;48.770;9.212;2024-03-29T00:04:45;3.93;;;2.37;;
286;SDS011;127;48.770;9.212;2024-03-29T00:07:12;3.23;;;2.20;;
286;SDS011;127;48.770;9.212;2024-03-29T00:09:38;6.20;;;2.10;;
286;SDS011;127;48.770;9.212;2024-03-29T00:12:04;3.10;;;2.10;;
286;SDS011;127;48.770;9.212;2024-03-29T00:14:31;2.37;;;2.20;;
286;SDS011;127;48.770;9.212;2024-03-29T00:16:57;6.93;;;2.20;;
286;SDS011;127;48.770;9.212;2024-03-29T00:19:26;3.23;;;2.20;;
286;SDS011;127;48.770;9.212;2024-03-29T00:21:52;2.53;;;2.10;;
286;SDS011;127;48.770;9.212;2024-03-29T00:24:18;4.47;;;2.43;;
286;SDS011;127;48.770;9.212;2024-03-29T00:26:45;3.37;;;2.60;;
286;SDS011;127;48.770;9.212;2024-03-29T00:29:11;2.93;;;2.30;;
286;SDS011;127;48.770;9.212;2024-03-29T00:31:37;3.73;;;2.30;;
286;SDS011;127;48.770;9.212;2024-03-29T00:34:03;4.37;;;2.20;;
286;SDS011;127;48.770;9.212;2024-03-29T00:36:32;3.60;;;2.20;;
286;SDS011;127;48.770;9.212;2024-03-29T00:38:58;4.47;;;2.00;;
286;SDS011;127;48.770;9.212;2024-03-29T00:41:25;2.53;;;2.03;;
286;SDS011;127;48.770;9.212;2024-03-29T00:43:51;2.47;;;2.23;;
286;SDS011;127;48.770;9.212;2024-03-29T00:46:17;2.80;;;2.20;;
286;SDS011;127;48.770;9.212;2024-03-29T00:48:44;4.30;;;2.13;;
286;SDS011;127;48.770;9.212;2024-03-29T00:51:10;1.87;;;1.83;;
286;SDS011;127;48.770;9.212;2024-03-29T00:53:39;3.73;;;2.33;;
286;SDS011;127;48.770;9.212;2024-03-29T00:56:05;4.33;;;1.90;;
286;SDS011;127;48.770;9.212;2024-03-29T00:58:31;3.37;;;2.10;;
286;SDS011;127;48.770;9.212;2024-03-29T01:00:57;2.43;;;1.80;;
286;SDS011;127;48.770;9.212;2024-03-29T01:03:24;2.63;;;2.07;;
286;SDS011;127;48.770;9.212;2024-03-29T01:05:50;1.90;;;1.83;;
286;SDS011;127;48.770;9.212;2024-03-29T01:08:16;6.37;;;2.50;;
286;SDS011;127;48.770;9.212;2024-03-29T01:10:45;2.90;;;2.00;;
286;SDS011;127;48.770;9.212;2024-03-29T01:13:11;2.03;;;1.90;;
286;SDS011;127;48.770;9.212;2024-03-29T01:15:37;3.67;;;2.00;;
286;SDS011;127;48.770;9.212;2024-03-29T01:18:04;1.73;;;1.57;;
286;SDS011;127;48.770;9.212;2024-03-29T01:20:30;2.73;;;1.83;;
286;SDS011;127;48.770;9.212;2024-03-29T01:22:57;1.80;;;1.77;;
286;SDS011;127;48.770;9.212;2024-03-29T01:25:23;1.90;;;1.80;;
286;SDS011;127;48.770;9.212;2024-03-29T01:27:52;3.70;;;1.90;;
286;SDS011;127;48.770;9.212;2024-03-29T01:30:18;4.33;;;1.90;;
286;SDS011;127;48.770;9.212;2024-03-29T01:32:44;1.83;;;1.73;;
286;SDS011;127;48.770;9.212;2024-03-29T01:35:10;1.90;;;1.83;;
286;SDS011;127;48.770;9.212;2024-03-29T01:37:37;3.13;;;1.90;;
286;SDS011;127;48.770;9.212;2024-03-29T01:40:03;1.80;;;1.80;;
286;SDS011;127;48.770;9.212;2024-03-29T01:42:30;2.50;;;1.93;;
286;SDS011;127;48.770;9.212;2024-03-29T01:44:59;1.60;;;1.53;;
286;SDS011;127;48.770;9.212;2024-03-29T01:47:25;1.87;;;1.80;;
286;SDS011;127;48.770;9.212;2024-03-29T01:49:51;3.93;;;2.30;;
286;SDS011;127;48.770;9.212;2024-03-29T01:52:17;3.43;;;1.60;;
286;SDS011;127;48.770;9.212;2024-03-29T01:54:45;2.73;;;1.90;;
286;SDS011;127;48.770;9.212;2024-03-29T01:57:12;2.60;;;1.70;;
286;SDS011;127;48.770;9.212;2024-03-29T01:59:39;2.17;;;1.97;;
286;SDS011;127;48.770;9.212;2024-03-29T02:02:08;1.93;;;1.83;;
286;SDS011;127;48.770;9.212;2024-03-29T02:04:35;2.37;;;1.73;;
286;SDS011;127;48.770;9.212;2024-03-29T02:07:01;3.97;;;1.70;;
286;SDS011;127;48.770;9.212;2024-03-29T02:09:28;3.67;;;2.17;;
286;SDS011;127;48.770;9.212;2024-03-29T02:11:55;3.67;;;1.80;;
286;SDS011;127;48.770;9.212;2024-03-29T02:14:21;1.93;;;1.70;;
286;SDS011;127;48.770;9.212;2024-03-29T02:16:47;6.73;;;1.80;;
286;SDS011;127;48.770;9.212;2024-03-29T02:19:16;2.20;;;2.00;;
286;SDS011;127;48.770;9.212;2024-03-29T02:21:43;2.67;;;1.83;;
286;SDS011;127;48.770;9.212;2024-03-29T02:24:13;2.33;;;1.90;;
286;SDS011;127;48.770;9.212;2024-03-29T02:26:41;2.10;;;1.97;;
286;SDS011;127;48.770;9.212;2024-03-29T02:29:07;1.80;;;1.70;;
286;SDS011;127;48.770;9.212;2024-03-29T02:31:33;2.40;;;2.20;;
286;SDS011;127;48.770;9.212;2024-03-29T02:34:00;4.30;;;1.80;;
286;SDS011;127;48.770;9.212;2024-03-29T02:36:26;3.10;;;1.93;;
286;SDS011;127;48.770;9.212;2024-03-29T02:38:52;1.60;;;1.50;;
286;SDS011;127;48.770;9.212;2024-03-29T02:41:22;1.93;;;1.60;;
286;SDS011;127;48.770;9.212;2024-03-29T02:43:48;2.73;;;1.77;;
286;SDS011;127;48.770;9.212;2024-03-29T02:46:14;3.23;;;1.70;;
286;SDS011;127;48.770;9.212;2024-03-29T02:48:41;2.53;;;1.77;;
286;SDS011;127;48.770;9.212;2024-03-29T02:51:07;5.20;;;2.00;;
286;SDS011;127;48.770;9.212;2024-03-29T02:53:33;1.83;;;1.50;;
286;SDS011;127;48.770;9.212;2024-03-29T02:55:59;3.03;;;1.60;;
286;SDS011;127;48.770;9.212;2024-03-29T02:58:28;2.70;;;1.73;;
286;SDS011;127;48.770;9.212;2024-03-29T03:00:54;2.67;;;1.80;;
286;SDS011;127;48.770;9.212;2024-03-29T03:03:23;1.83;;;1.80;;
286;SDS011;127;48.770;9.212;2024-03-29T03:05:50;2.47;;;1.93;;
286;SDS011;127;48.770;9.212;2024-03-29T03:08:16;1.63;;;1.53;;
286;SDS011;127;48.770;9.212;2024-03-29T03:10:57;3.00;;;1.73;;
286;SDS011;127;48.770;9.212;2024-03-29T03:13:29;1.53;;;1.40;;
286;SDS011;127;48.770;9.212;2024-03-29T03:15:56;2.60;;;1.33;;
286;SDS011;127;48.770;9.212;2024-03-29T03:18:22;2.60;;;1.77;;
286;SDS011;127;48.770;9.212;2024-03-29T03:20:51;1.47;;;1.40;;
286;SDS011;127;48.770;9.212;2024-03-29T03:23:18;1.70;;;1.50;;
286;SDS011;127;48.770;9.212;2024-03-29T03:25:44;1.60;;;1.50;;
286;SDS011;127;48.770;9.212;2024-03-29T03:28:10;1.70;;;1.43;;
286;SDS011;127;48.770;9.212;2024-03-29T03:30:40;2.73;;;1.60;;
286;SDS011;127;48.770;9.212;2024-03-29T03:33:06;3.00;;;1.83;;
286;SDS011;127;48.770;9.212;2024-03-29T03:35:33;1.70;;;1.60;;
286;SDS011;127;48.770;9.212;2024-03-29T03:37:59;1.97;;;1.70;;
286;SDS011;127;48.770;9.212;2024-03-29T03:40:25;1.63;;;1.27;;
286;SDS011;127;48.770;9.212;2024-03-29T03:42:51;1.50;;;1.40;;
286;SDS011;127;48.770;9.212;2024-03-29T03:45:18;2.70;;;1.63;;
286;SDS011;127;48.770;9.212;2024-03-29T03:47:47;1.77;;;1.70;;
286;SDS011;127;48.770;9.212;2024-03-29T03:50:14;1.47;;;1.40;;
286;SDS011;127;48.770;9.212;2024-03-29T03:52:40;1.60;;;1.50;;
286;SDS011;127;48.770;9.212;2024-03-29T03:55:07;1.67;;;1.63;;
286;SDS011;127;48.770;9.212;2024-03-29T03:57:33;1.90;;;1.47;;
286;SDS011;127;48.770;9.212;2024-03-29T03:59:59;1.57;;;1.50;;
286;SDS011;127;48.770;9.212;2024-03-29T04:02:25;1.40;;;1.30;;
286;SDS011;127;48.770;9.212;2024-03-29T04:04:54;1.57;;;1.43;;
286;SDS011;127;48.770;9.212;2024-03-29T04:07:21;1.83;;;1.60;;
286;SDS011;127;48.770;9.212;2024-03-29T04:09:50;1.40;;;1.30;;
286;SDS011;127;48.770;9.212;2024-03-29T04:12:16;1.40;;;1.27;;
286;SDS011;127;48.770;9.212;2024-03-29T04:14:42;2.83;;;1.60;;
286;SDS011;127;48.770;9.212;2024-03-29T04:17:09;1.83;;;1.33;;
286;SDS011;127;48.770;9.212;2024-03-29T04:19:35;1.20;;;1.10;;
286;SDS011;127;48.770;9.212;2024-03-29T04:22:04;1.43;;;1.40;;
286;SDS011;127;48.770;9.212;2024-03-29T04:24:30;2.40;;;1.47;;
286;SDS011;127;48.770;9.212;2024-03-29T04:26:56;3.53;;;1.80;;
286;SDS011;127;48.770;9.212;2024-03-29T04:29:23;2.10;;;1.60;;
286;SDS011;127;48.770;9.212;2024-03-29T04:31:49;1.80;;;1.70;;
286;SDS011;127;48.770;9.212;2024-03-29T04:34:15;1.67;;;1.47;;
286;SDS011;127;48.770;9.212;2024-03-29T04:36:41;1.57;;;1.53;;
286;SDS011;127;48.770;9.212;2024-03-29T04:39:10;1.93;;;1.43;;
286;SDS011;127;48.770;9.212;2024-03-29T04:41:36;2.30;;;1.90;;
286;SDS011;127;48.770;9.212;2024-03-29T04:44:03;1.37;;;1.30;;
286;SDS011;127;48.770;9.212;2024-03-29T04:46:29;1.50;;;1.40;;
286;SDS011;127;48.770;9.212;2024-03-29T04:48:56;1.57;;;1.47;;
286;SDS011;127;48.770;9.212;2024-03-29T04:51:22;3.93;;;1.90;;
286;SDS011;127;48.770;9.212;2024-03-29T04:53:48;1.50;;;1.40;;
286;SDS011;127;48.770;9.212;2024-03-29T04:56:17;1.30;;;1.20;;
286;SDS011;127;48.770;9.212;2024-03-29T04:58:43;3.33;;;1.50;;
286;SDS011;127;48.770;9.212;2024-03-29T05:01:11;1.43;;;1.33;;
286;SDS011;127;48.770;9.212;2024-03-29T05:03:37;1.60;;;1.50;;
286;SDS011;127;48.770;9.212;2024-03-29T05:06:03;1.53;;;1.40;;
286;SDS011;127;48.770;9.212;2024-03-29T05:08:29;1.57;;;1.47;;
286;SDS011;127;48.770;9.212;2024-03-29T05:10:56;1.87;;;1.50;;
286;SDS011;127;48.770;9.212;2024-03-29T05:13:25;1.47;;;1.43;;
286;SDS011;127;48.770;9.212;2024-03-29T05:15:51;1.83;;;1.57;;
286;SDS011;127;48.770;9.212;2024-03-29T05:18:17;1.77;;;1.70;;
286;SDS011;127;48.770;9.212;2024-03-29T05:20:43;1.93;;;1.83;;
286;SDS011;127;48.770;9.212;2024-03-29T05:23:12;1.47;;;1.37;;
286;SDS011;127;48.770;9.212;2024-03-29T05:25:38;1.70;;;1.70;;
286;SDS011;127;48.770;9.212;2024-03-29T05:28:05;1.40;;;1.30;;
286;SDS011;127;48.770;9.212;2024-03-29T05:30:34;1.43;;;1.37;;
286;SDS011;127;48.770;9.212;2024-03-29T05:33:00;4.50;;;1.60;;
286;SDS011;127;48.770;9.212;2024-03-29T05:35:27;1.43;;;1.30;;
286;SDS011;127;48.770;9.212;2024-03-29T05:37:53;5.97;;;2.03;;
286;SDS011;127;48.770;9.212;2024-03-29T05:40:19;2.37;;;1.60;;
286;SDS011;127;48.770;9.212;2024-03-29T05:42:46;1.80;;;1.40;;
286;SDS011;127;48.770;9.212;2024-03-29T05:45:22;1.60;;;1.33;;
286;SDS011;127;48.770;9.212;2024-03-29T05:47:51;1.80;;;1.33;;
286;SDS011;127;48.770;9.212;2024-03-29T05:50:17;1.40;;;1.30;;
286;SDS011;127;48.770;9.212;2024-03-29T05:52:43;1.70;;;1.60;;
286;SDS011;127;48.770;9.212;2024-03-29T05:55:10;2.43;;;1.47;;
286;SDS011;127;48.770;9.212;2024-03-29T05:57:36;1.73;;;1.40;;
286;SDS011;127;48.770;9.212;2024-03-29T06:00:03;1.40;;;1.30;;
286;SDS011;127;48.770;9.212;2024-03-29T06:02:29;1.53;;;1.40;;
286;SDS011;127;48.770;9.212;2024-03-29T06:04:58;2.13;;;1.30;;
286;SDS011;127;48.770;9.212;2024-03-29T06:07:24;1.40;;;1.30;;
286;SDS011;127;48.770;9.212;2024-03-29T06:09:51;1.50;;;1.37;;
286;SDS011;127;48.770;9.212;2024-03-29T06:12:17;1.70;;;1.60;;
286;SDS011;127;48.770;9.212;2024-03-29T06:14:43;1.40;;;1.30;;
286;SDS011;127;48.770;9.212;2024-03-29T06:17:24;1.30;;;1.20;;
286;SDS011;127;48.770;9.212;2024-03-29T06:19:51;1.67;;;1.40;;
286;SDS011;127;48.770;9.212;2024-03-29T06:22:20;1.73;;;1.33;;
286;SDS011;127;48.770;9.212;2024-03-29T06:24:46;1.30;;;1.20;;
286;SDS011;127;48.770;9.212;2024-03-29T06:27:12;1.70;;;1.20;;
286;SDS011;127;48.770;9.212;2024-03-29T06:29:38;2.50;;;1.70;;
286;SDS011;127;48.770;9.212;2024-03-29T06:32:05;2.30;;;1.50;;
286;SDS011;127;48.770;9.212;2024-03-29T06:34:31;1.90;;;1.47;;
286;SDS011;127;48.770;9.212;2024-03-29T06:36:57;1.27;;;1.23;;
286;SDS011;127;48.770;9.212;2024-03-29T06:39:26;1.83;;;1.37;;
286;SDS011;127;48.770;9.212;2024-03-29T06:41:52;1.63;;;1.50;;
286;SDS011;127;48.770;9.212;2024-03-29T06:44:19;1.40;;;1.40;;
286;SDS011;127;48.770;9.212;2024-03-29T06:46:45;1.40;;;1.30;;
286;SDS011;127;48.770;9.212;2024-03-29T06:49:11;1.10;;;1.10;;
286;SDS011;127;48.770;9.212;2024-03-29T06:51:38;1.40;;;1.30;;
286;SDS011;127;48.770;9.212;2024-03-29T06:54:04;1.30;;;1.20;;
286;SDS011;127;48.770;9.212;2024-03-29T06:56:33;1.70;;;1.60;;
286;SDS011;127;48.770;9.212;2024-03-29T06:59:00;1.77;;;1.20;;
286;SDS011;127;48.770;9.212;2024-03-29T07:01:26;1.37;;;1.33;;
286;SDS011;127;48.770;9.212;2024-03-29T07:03:52;1.63;;;1.10;;
286;SDS011;127;48.770;9.212;2024-03-29T07:06:18;1.87;;;1.40;;
286;SDS011;127;48.770;9.212;2024-03-29T07:08:45;1.27;;;1.20;;
286;SDS011;127;48.770;9.212;2024-03-29T07:11:11;1.50;;;1.40;;
286;SDS011;127;48.770;9.212;2024-03-29T07:13:40;1.90;;;1.77;;
286;SDS011;127;48.770;9.212;2024-03-29T07:16:06;6.23;;;1.57;;
286;SDS011;127;48.770;9.212;2024-03-29T07:18:33;1.30;;;1.20;;
286;SDS011;127;48.770;9.212;2024-03-29T07:20:59;1.20;;;1.00;;
286;SDS011;127;48.770;9.212;2024-03-29T07:23:25;1.93;;;1.20;;
286;SDS011;127;48.770;9.212;2024-03-29T07:26:01;1.30;;;1.20;;
286;SDS011;127;48.770;9.212;2024-03-29T07:28:28;1.67;;;1.43;;
286;SDS011;127;48.770;9.212;2024-03-29T07:30:57;3.77;;;1.40;;
286;SDS011;127;48.770;9.212;2024-03-29T07:33:24;1.30;;;1.20;;
286;SDS011;127;48.770;9.212;2024-03-29T07:35:51;2.33;;;1.50;;
286;SDS011;127;48.770;9.212;2024-03-29T07:38:17;3.47;;;1.70;;
286;SDS011;127;48.770;9.212;2024-03-29T07:40:43;1.40;;;1.40;;
286;SDS011;127;48.770;9.212;2024-03-29T07:43:10;6.30;;;2.37;;
286;SDS011;127;48.770;9.212;2024-03-29T07:45:37;5.00;;;1.37;;
286;SDS011;127;48.770;9.212;2024-03-29T07:48:06;3.27;;;1.60;;
286;SDS011;127;48.770;9.212;2024-03-29T07:50:32;1.70;;;1.60;;
286;SDS011;127;48.770;9.212;2024-03-29T07:52:59;2.20;;;2.00;;
286;SDS011;127;48.770;9.212;2024-03-29T07:55:25;2.40;;;1.70;;
286;SDS011;127;48.770;9.212;2024-03-29T07:57:51;4.20;;;1.80;;
286;SDS011;127;48.770;9.212;2024-03-29T08:00:18;1.63;;;1.43;;
286;SDS011;127;48.770;9.212;2024-03-29T08:02:44;2.17;;;1.93;;
286;SDS011;127;48.770;9.212;2024-03-29T08:05:13;3.50;;;1.50;;
286;SDS011;127;48.770;9.212;2024-03-29T08:07:39;2.97;;;1.97;;
286;SDS011;127;48.770;9.212;2024-03-29T08:10:06;1.70;;;1.60;;
286;SDS011;127;48.770;9.212;2024-03-29T08:12:33;2.17;;;1.80;;
286;SDS011;127;48.770;9.212;2024-03-29T08:14:59;2.10;;;2.00;;
286;SDS011;127;48.770;9.212;2024-03-29T08:17:25;2.60;;;1.77;;
286;SDS011;127;48.770;9.212;2024-03-29T08:19:51;2.53;;;1.63;;
286;SDS011;127;48.770;9.212;2024-03-29T08:22:20;3.43;;;1.97;;
286;SDS011;127;48.770;9.212;2024-03-29T08:24:46;1.90;;;1.80;;
286;SDS011;127;48.770;9.212;2024-03-29T08:27:13;4.03;;;1.60;;
286;SDS011;127;48.770;9.212;2024-03-29T08:29:40;1.67;;;1.60;;
286;SDS011;127;48.770;9.212;2024-03-29T08:32:07;1.60;;;1.53;;
286;SDS011;127;48.770;9.212;2024-03-29T08:34:33;2.57;;;1.80;;
286;SDS011;127;48.770;9.212;2024-03-29T08:36:59;1.70;;;1.60;;
286;SDS011;127;48.770;9.212;2024-03-29T08:39:28;2.80;;;1.70;;
286;SDS011;127;48.770;9.212;2024-03-29T08:41:54;2.33;;;1.77;;
286;SDS011;127;48.770;9.212;2024-03-29T08:44:21;1.70;;;1.60;;
286;SDS011;127;48.770;9.212;2024-03-29T08:46:47;4.63;;;1.70;;
286;SDS011;127;48.770;9.212;2024-03-29T08:49:13;2.10;;;1.80;;
286;SDS011;127;48.770;9.212;2024-03-29T08:51:39;1.70;;;1.60;;
286;SDS011;127;48.770;9.212;2024-03-29T08:54:06;3.63;;;1.40;;
286;SDS011;127;48.770;9.212;2024-03-29T08:56:35;1.70;;;1.60;;
286;SDS011;127;48.770;9.212;2024-03-29T08:59:01;3.00;;;1.73;;
286;SDS011;127;48.770;9.212;2024-03-29T09:01:27;1.50;;;1.40;;
286;SDS011;127;48.770;9.212;2024-03-29T09:03:53;1.33;;;1.23;;
286;SDS011;127;48.770;9.212;2024-03-29T09:06:19;1.50;;;1.40;;
286;SDS011;127;48.770;9.212;2024-03-29T09:08:46;1.37;;;1.30;;
286;SDS011;127;48.770;9.212;2024-03-29T09:11:12;1.40;;;1.30;;
286;SDS011;127;48.770;9.212;2024-03-29T09:13:41;2.87;;;1.73;;
286;SDS011;127;48.770;9.212;2024-03-29T09:16:07;2.27;;;1.80;;
286;SDS011;127;48.770;9.212;2024-03-29T09:18:33;2.43;;;1.70;;
286;SDS011;127;48.770;9.212;2024-03-29T09:21:00;2.13;;;1.97;;
286;SDS011;127;48.770;9.212;2024-03-29T09:23:26;3.53;;;1.80;;
286;SDS011;127;48.770;9.212;2024-03-29T09:25:53;2.60;;;1.90;;
286;SDS011;127;48.770;9.212;2024-03-29T09:28:19;2.80;;;1.60;;
286;SDS011;127;48.770;9.212;2024-03-29T09:30:48;2.60;;;2.00;;
286;SDS011;127;48.770;9.212;2024-03-29T09:33:15;1.93;;;1.73;;
286;SDS011;127;48.770;9.212;2024-03-29T09:35:41;2.30;;;2.10;;
286;SDS011;127;48.770;9.212;2024-03-29T09:38:07;4.30;;;1.80;;
286;SDS011;127;48.770;9.212;2024-03-29T09:40:34;1.60;;;1.40;;
286;SDS011;127;48.770;9.212;2024-03-29T09:43:00;1.63;;;1.53;;
286;SDS011;127;48.770;9.212;2024-03-29T09:45:28;3.20;;;1.63;;
286;SDS011;127;48.770;9.212;2024-03-29T09:47:57;2.73;;;1.50;;
286;SDS011;127;48.770;9.212;2024-03-29T09:50:23;1.53;;;1.40;;
286;SDS011;127;48.770;9.212;2024-03-29T09:52:49;2.80;;;1.50;;
286;SDS011;127;48.770;9.212;2024-03-29T09:55:16;1.53;;;1.43;;
286;SDS011;127;48.770;9.212;2024-03-29T09:57:44;3.73;;;1.73;;
286;SDS011;127;48.770;9.212;2024-03-29T10:00:11;2.97;;;2.10;;
286;SDS011;127;48.770;9.212;2024-03-29T10:02:38;2.70;;;1.73;;
286;SDS011;127;48.770;9.212;2024-03-29T10:05:08;2.87;;;2.30;;
286;SDS011;127;48.770;9.212;2024-03-29T10:07:34;2.90;;;1.90;;
286;SDS011;127;48.770;9.212;2024-03-29T10:10:02;3.47;;;2.17;;
286;SDS011;127;48.770;9.212;2024-03-29T10:12:29;4.37;;;2.40;;
286;SDS011;127;48.770;9.212;2024-03-29T10:14:55;4.20;;;2.30;;
286;SDS011;127;48.770;9.212;2024-03-29T10:17:24;5.57;;;1.90;;
286;SDS011;127;48.770;9.212;2024-03-29T10:19:50;2.13;;;1.97;;
286;SDS011;127;48.770;9.212;2024-03-29T10:22:19;3.30;;;2.03;;
286;SDS011;127;48.770;9.212;2024-03-29T10:24:45;6.33;;;2.17;;
286;SDS011;127;48.770;9.212;2024-03-29T10:27:11;6.47;;;1.90;;
286;SDS011;127;48.770;9.212;2024-03-29T10:29:40;2.90;;;2.10;;
286;SDS011;127;48.770;9.212;2024-03-29T10:32:06;4.17;;;1.90;;
286;SDS011;127;48.770;9.212;2024-03-29T10:34:33;3.20;;;2.00;;
286;SDS011;127;48.770;9.212;2024-03-29T10:37:00;2.60;;;1.83;;
286;SDS011;127;48.770;9.212;2024-03-29T10:39:29;4.10;;;2.43;;
286;SDS011;127;48.770;9.212;2024-03-29T10:41:56;3.10;;;2.23;;
286;SDS011;127;48.770;9.212;2024-03-29T10:44:23;7.77;;;2.57;;
286;SDS011;127;48.770;9.212;2024-03-29T10:46:49;4.10;;;2.53;;
286;SDS011;127;48.770;9.212;2024-03-29T10:49:16;3.97;;;2.20;;
286;SDS011;127;48.770;9.212;2024-03-29T10:51:43;8.07;;;2.43;;
286;SDS011;127;48.770;9.212;2024-03-29T10:54:09;3.33;;;1.97;;
286;SDS011;127;48.770;9.212;2024-03-29T10:56:40;2.40;;;1.90;;
286;SDS011;127;48.770;9.212;2024-03-29T10:59:09;4.80;;;2.27;;
286;SDS011;127;48.770;9.212;2024-03-29T11:01:38;2.80;;;2.10;;
286;SDS011;127;48.770;9.212;2024-03-29T11:04:12;2.07;;;1.97;;
286;SDS011;127;48.770;9.212;2024-03-29T11:06:39;8.30;;;2.70;;
286;SDS011;127;48.770;9.212;2024-03-29T11:09:06;2.90;;;2.17;;
286;SDS011;127;48.770;9.212;2024-03-29T11:11:35;4.23;;;1.73;;
286;SDS011;127;48.770;9.212;2024-03-29T11:14:06;4.97;;;2.07;;
286;SDS011;127;48.770;9.212;2024-03-29T11:16:33;5.10;;;2.03;;
286;SDS011;127;48.770;9.212;2024-03-29T11:19:00;2.57;;;1.67;;
286;SDS011;127;48.770;9.212;2024-03-29T11:21:27;3.53;;;2.00;;
286;SDS011;127;48.770;9.212;2024-03-29T11:23:53;4.93;;;2.40;;
286;SDS011;127;48.770;9.212;2024-03-29T11:26:20;5.83;;;1.90;;
286;SDS011;127;48.770;9.212;2024-03-29T11:28:48;2.40;;;1.80;;
286;SDS011;127;48.770;9.212;2024-03-29T11:31:17;2.10;;;1.33;;
286;SDS011;127;48.770;9.212;2024-03-29T11:33:46;12.83;;;2.90;;
286;SDS011;127;48.770;9.212;2024-03-29T11:36:15;4.20;;;1.40;;
286;SDS011;127;48.770;9.212;2024-03-29T11:38:41;2.10;;;1.70;;
286;SDS011;127;48.770;9.212;2024-03-29T11:41:10;1.67;;;1.33;;
286;SDS011;127;48.770;9.212;2024-03-29T11:43:36;1.40;;;1.07;;
286;SDS011;127;48.770;9.212;2024-03-29T11:46:04;1.30;;;1.20;;
286;SDS011;127;48.770;9.212;2024-03-29T11:48:33;2.20;;;1.47;;
286;SDS011;127;48.770;9.212;2024-03-29T11:51:00;2.47;;;1.40;;
286;SDS011;127;48.770;9.212;2024-03-29T11:53:27;1.83;;;1.40;;
286;SDS011;127;48.770;9.212;2024-03-29T11:55:53;1.50;;;1.10;;
286;SDS011;127;48.770;9.212;2024-03-29T11:58:20;1.73;;;1.20;;
286;SDS011;127;48.770;9.212;2024-03-29T12:00:47;4.03;;;1.33;;
286;SDS011;127;48.770;9.212;2024-03-29T12:03:14;2.40;;;1.20;;
286;SDS011;127;48.770;9.212;2024-03-29T12:05:43;2.23;;;1.43;;
286;SDS011;127;48.770;9.212;2024-03-29T12:08:10;2.70;;;1.33;;
286;SDS011;127;48.770;9.212;2024-03-29T12:10:36;4.17;;;1.70;;
286;SDS011;127;48.770;9.212;2024-03-29T12:13:03;2.20;;;1.50;;
286;SDS011;127;48.770;9.212;2024-03-29T12:15:30;2.97;;;1.43;;
286;SDS011;127;48.770;9.212;2024-03-29T12:17:56;4.90;;;2.90;;
286;SDS011;127;48.770;9.212;2024-03-29T12:20:23;4.10;;;2.23;;
286;SDS011;127;48.770;9.212;2024-03-29T12:22:52;3.00;;;1.70;;
286;SDS011;127;48.770;9.212;2024-03-29T12:25:19;2.03;;;1.50;;
286;SDS011;127;48.770;9.212;2024-03-29T12:27:46;4.07;;;1.30;;
286;SDS011;127;48.770;9.212;2024-03-29T12:30:12;2.87;;;1.80;;
286;SDS011;127;48.770;9.212;2024-03-29T12:32:39;5.30;;;2.97;;
286;SDS011;127;48.770;9.212;2024-03-29T12:35:07;5.00;;;3.40;;
286;SDS011;127;48.770;9.212;2024-03-29T12:37:34;3.50;;;2.47;;
286;SDS011;127;48.770;9.212;2024-03-29T12:40:03;4.73;;;2.20;;
286;SDS011;127;48.770;9.212;2024-03-29T12:42:30;7.10;;;2.60;;
286;SDS011;127;48.770;9.212;2024-03-29T12:44:56;4.93;;;2.27;;
286;SDS011;127;48.770;9.212;2024-03-29T12:47:23;5.33;;;2.30;;
286;SDS011;127;48.770;9.212;2024-03-29T12:49:49;3.40;;;2.00;;
286;SDS011;127;48.770;9.212;2024-03-29T12:52:15;5.10;;;1.63;;
286;SDS011;127;48.770;9.212;2024-03-29T12:54:42;4.37;;;1.77;;
286;SDS011;127;48.770;9.212;2024-03-29T12:57:10;7.10;;;1.80;;
286;SDS011;127;48.770;9.212;2024-03-29T12:59:37;4.43;;;1.93;;
286;SDS011;127;48.770;9.212;2024-03-29T13:02:03;3.93;;;1.97;;
286;SDS011;127;48.770;9.212;2024-03-29T13:04:29;4.20;;;1.70;;
286;SDS011;127;48.770;9.212;2024-03-29T13:06:56;3.40;;;2.23;;
286;SDS011;127;48.770;9.212;2024-03-29T13:09:22;9.50;;;2.40;;
286;SDS011;127;48.770;9.212;2024-03-29T13:11:48;3.30;;;2.27;;
286;SDS011;127;48.770;9.212;2024-03-29T13:14:17;3.47;;;2.00;;
286;SDS011;127;48.770;9.212;2024-03-29T13:16:44;2.13;;;1.77;;
286;SDS011;127;48.770;9.212;2024-03-29T13:19:10;4.20;;;1.80;;
286;SDS011;127;48.770;9.212;2024-03-29T13:21:36;3.40;;;1.97;;
286;SDS011;127;48.770;9.212;2024-03-29T13:24:03;2.20;;;1.70;;
286;SDS011;127;48.770;9.212;2024-03-29T13:26:29;2.60;;;1.30;;
286;SDS011;127;48.770;9.212;2024-03-29T13:28:55;3.83;;;1.47;;
286;SDS011;127;48.770;9.212;2024-03-29T13:31:24;1.70;;;1.17;;
286;SDS011;127;48.770;9.212;2024-03-29T13:33:51;5.33;;;1.20;;
286;SDS011;127;48.770;9.212;2024-03-29T13:36:17;1.60;;;1.40;;
286;SDS011;127;48.770;9.212;2024-03-29T13:38:43;1.93;;;1.20;;
286;SDS011;127;48.770;9.212;2024-03-29T13:41:09;1.67;;;1.53;;
286;SDS011;127;48.770;9.212;2024-03-29T13:43:36;1.97;;;1.50;;
286;SDS011;127;48.770;9.212;2024-03-29T13:46:03;2.67;;;1.70;;
286;SDS011;127;48.770;9.212;2024-03-29T13:48:31;1.57;;;1.40;;
286;SDS011;127;48.770;9.212;2024-03-29T13:50:58;5.87;;;1.70;;
286;SDS011;127;48.770;9.212;2024-03-29T13:53:24;1.77;;;1.50;;
286;SDS011;127;48.770;9.212;2024-03-29T13:55:50;2.37;;;1.70;;
286;SDS011;127;48.770;9.212;2024-03-29T13:58:17;1.43;;;1.43;;
286;SDS011;127;48.770;9.212;2024-03-29T14:00:43;1.70;;;1.60;;
286;SDS011;127;48.770;9.212;2024-03-29T14:03:09;1.73;;;1.30;;
286;SDS011;127;48.770;9.212;2024-03-29T14:05:38;2.50;;;1.27;;
286;SDS011;127;48.770;9.212;2024-03-29T14:08:05;3.27;;;1.60;;
286;SDS011;127;48.770;9.212;2024-03-29T14:10:31;2.87;;;1.77;;
286;SDS011;127;48.770;9.212;2024-03-29T14:12:57;1.93;;;1.83;;
286;SDS011;127;48.770;9.212;2024-03-29T14:15:23;1.30;;;1.30;;
286;SDS011;127;48.770;9.212;2024-03-29T14:17:50;1.77;;;1.37;;
286;SDS011;127;48.770;9.212;2024-03-29T14:20:16;6.90;;;2.33;;
286;SDS011;127;48.770;9.212;2024-03-29T14:22:45;3.07;;;1.70;;
286;SDS011;127;48.770;9.212;2024-03-29T14:25:13;2.13;;;1.70;;
286;SDS011;127;48.770;9.212;2024-03-29T14:27:39;1.87;;;1.47;;
286;SDS011;127;48.770;9.212;2024-03-29T14:30:06;1.70;;;1.60;;
286;SDS011;127;48.770;9.212;2024-03-29T14:32:32;2.63;;;1.60;;
286;SDS011;127;48.770;9.212;2024-03-29T14:34:58;2.00;;;1.40;;
286;SDS011;127;48.770;9.212;2024-03-29T14:37:25;1.80;;;1.43;;
286;SDS011;127;48.770;9.212;2024-03-29T14:39:54;3.13;;;1.60;;
286;SDS011;127;48.770;9.212;2024-03-29T14:42:20;1.67;;;1.50;;
286;SDS011;127;48.770;9.212;2024-03-29T14:44:46;1.73;;;1.43;;
286;SDS011;127;48.770;9.212;2024-03-29T14:47:12;1.70;;;1.37;;
286;SDS011;127;48.770;9.212;2024-03-29T14:49:39;4.50;;;1.60;;
286;SDS011;127;48.770;9.212;2024-03-29T14:52:05;2.00;;;1.80;;
286;SDS011;127;48.770;9.212;2024-03-29T14:54:31;3.33;;;1.60;;
286;SDS011;127;48.770;9.212;2024-03-29T14:57:00;4.77;;;2.10;;
286;SDS011;127;48.770;9.212;2024-03-29T14:59:27;1.87;;;1.60;;
286;SDS011;127;48.770;9.212;2024-03-29T15:01:53;2.80;;;1.87;;
286;SDS011;127;48.770;9.212;2024-03-29T15:04:19;1.40;;;1.20;;
286;SDS011;127;48.770;9.212;2024-03-29T15:06:45;2.10;;;1.77;;
286;SDS011;127;48.770;9.212;2024-03-29T15:09:12;2.00;;;1.53;;
286;SDS011;127;48.770;9.212;2024-03-29T15:11:38;2.63;;;1.70;;
286;SDS011;127;48.770;9.212;2024-03-29T15:14:07;2.70;;;1.83;;
286;SDS011;127;48.770;9.212;2024-03-29T15:16:34;3.00;;;1.73;;
286;SDS011;127;48.770;9.212;2024-03-29T15:19:00;1.77;;;1.40;;
286;SDS011;127;48.770;9.212;2024-03-29T15:21:26;2.90;;;1.80;;
286;SDS011;127;48.770;9.212;2024-03-29T15:23:52;3.40;;;2.03;;
286;SDS011;127;48.770;9.212;2024-03-29T15:26:19;1.97;;;1.53;;
286;SDS011;127;48.770;9.212;2024-03-29T15:28:45;2.23;;;1.50;;
286;SDS011;127;48.770;9.212;2024-03-29T15:31:29;2.97;;;1.97;;
286;SDS011;127;48.770;9.212;2024-03-29T15:33:55;3.00;;;1.40;;
286;SDS011;127;48.770;9.212;2024-03-29T15:36:22;1.70;;;1.37;;
286;SDS011;127;48.770;9.212;2024-03-29T15:38:48;2.03;;;1.60;;
286;SDS011;127;48.770;9.212;2024-03-29T15:41:15;3.10;;;1.90;;
286;SDS011;127;48.770;9.212;2024-03-29T15:43:41;6.47;;;2.00;;